Time;durP1;ratioP1;P1;durP2;ratioP2;P2;SDS_P1;SDS_P2;PMS_P1;PMS_P2;Temp;Humidity;BMP_temperature;BMP_pressure;BME280_temperature;BME280_humidity;BME280_pressure;Samples;Min_cycle;Max_cycle;Signal;HPM_P1;HPM_P2
2023/07/15 00:01:29;;;;;;;;;;;;;;;20.42;66.50;101353.10;107505;1250;99285;-62
2023/07/15 00:03:58;;;;;;;;;;;;;;;20.39;66.36;101349.30;107473;1251;112607;-62
2023/07/15 00:06:31;;;;;;;;;;;;;;;20.32;66.36;101352.35;107525;1251;109795;-61
2023/07/15 00:08:59;;;;;;;;;;;;;;;20.27;66.71;101352.78;107476;1251;106722;-61
2023/07/15 00:11:37;;;;;;;;;;;;;;;20.23;66.85;101351.83;107449;1251;99147;-64
2023/07/15 00:14:19;;;;;;;;;;;;;;;20.20;66.93;101351.42;107532;1251;99047;-61
2023/07/15 00:16:47;;;;;;;;;;;;;;;20.18;67.19;101353.10;107636;1254;113406;-62
2023/07/15 00:19:17;;;;;;;;;;;;;;;20.16;67.46;101361.73;107590;1253;110744;-64
2023/07/15 00:21:46;;;;;;;;;;;;;;;20.11;68.51;101361.26;107501;1251;108128;-62
2023/07/15 00:24:15;;;;;;;;;;;;;;;20.01;68.01;101365.69;107527;1251;99210;-60
2023/07/15 00:26:47;;;;;;;;;;;;;;;19.96;67.84;101366.70;107524;1251;99167;-60
2023/07/15 00:29:16;;;;;;;;;;;;;;;19.92;68.09;101365.57;107609;1251;113284;-61
2023/07/15 00:31:45;;;;;;;;;;;;;;;19.88;67.98;101360.13;107522;1251;108578;-62
2023/07/15 00:34:13;;;;;;;;;;;;;;;19.84;68.44;101361.71;107516;1250;107678;-62
2023/07/15 00:36:42;;;;;;;;;;;;;;;19.80;68.15;101360.20;107563;1251;99165;-61
2023/07/15 00:39:10;;;;;;;;;;;;;;;19.77;68.41;101361.76;107491;1251;99057;-63
2023/07/15 00:41:39;;;;;;;;;;;;;;;19.76;68.34;101361.23;107646;1251;113045;-60
2023/07/15 00:44:14;;;;;;;;;;;;;;;19.71;68.31;101362.29;107565;1254;108758;-62
2023/07/15 00:46:45;;;;;;;;;;;;;;;19.67;68.31;101365.08;107541;1251;110568;-60
2023/07/15 00:49:17;;;;;;;;;;;;;;;19.66;68.20;101369.48;107499;1254;99234;-61
2023/07/15 00:52:05;;;;;;;;;;;;;;;19.63;68.03;101370.11;107503;1251;99128;-62
2023/07/15 00:54:35;;;;;;;;;;;;;;;19.59;68.61;101370.15;107536;1251;113704;-60
2023/07/15 00:57:05;;;;;;;;;;;;;;;19.54;69.03;101368.90;107450;1250;109356;-60
2023/07/15 00:59:35;;;;;;;;;;;;;;;19.50;69.46;101369.29;107592;1253;108493;-63
2023/07/15 01:02:03;;;;;;;;;;;;;;;19.49;69.17;101369.13;107579;1255;99282;-63
2023/07/15 01:04:31;;;;;;;;;;;;;;;19.47;69.28;101371.15;107632;1251;99186;-62
2023/07/15 01:07:00;;;;;;;;;;;;;;;19.45;69.47;101376.08;107604;1251;113674;-61
2023/07/15 01:09:28;;;;;;;;;;;;;;;19.44;69.55;101373.90;107592;1251;110083;-60
2023/07/15 01:11:57;;;;;;;;;;;;;;;19.41;69.15;101375.80;107546;1253;108654;-61
2023/07/15 01:14:28;;;;;;;;;;;;;;;19.36;69.47;101370.04;107567;1253;99265;-62
2023/07/15 01:16:56;;;;;;;;;;;;;;;19.30;70.06;101370.74;107612;1251;99055;-64
2023/07/15 01:19:24;;;;;;;;;;;;;;;19.24;70.11;101368.83;107556;1251;112806;-63
2023/07/15 01:21:53;;;;;;;;;;;;;;;19.22;70.22;101369.80;107490;1254;109131;-63
2023/07/15 01:24:22;;;;;;;;;;;;;;;19.20;70.10;101367.54;107593;1254;109400;-62
2023/07/15 01:26:57;;;;;;;;;;;;;;;19.18;70.18;101369.98;107587;1253;99181;-62
2023/07/15 01:29:26;;;;;;;;;;;;;;;19.15;70.17;101370.52;107607;1251;99172;-61
2023/07/15 01:31:55;;;;;;;;;;;;;;;19.12;70.14;101369.80;107630;1250;112861;-62
2023/07/15 01:34:23;;;;;;;;;;;;;;;19.07;70.34;101373.22;107497;1251;109566;-62
2023/07/15 01:36:51;;;;;;;;;;;;;;;19.05;70.56;101373.67;107489;1251;107983;-60
2023/07/15 01:39:19;;;;;;;;;;;;;;;19.03;70.54;101376.17;107568;1254;99163;-60
2023/07/15 01:41:50;;;;;;;;;;;;;;;19.00;70.44;101371.81;107587;1254;99252;-62
2023/07/15 01:44:18;;;;;;;;;;;;;;;19.01;70.26;101369.96;107615;1251;113204;-61
2023/07/15 01:46:50;;;;;;;;;;;;;;;19.00;70.61;101374.30;107519;1251;110055;-61
2023/07/15 01:49:18;;;;;;;;;;;;;;;18.98;70.64;101376.95;107550;1251;108575;-61
2023/07/15 01:51:47;;;;;;;;;;;;;;;18.97;70.77;101375.10;107496;1251;99268;-62
2023/07/15 01:54:15;;;;;;;;;;;;;;;18.97;71.25;101377.63;107623;1255;99075;-61
2023/07/15 01:56:43;;;;;;;;;;;;;;;18.97;71.36;101376.91;107523;1253;112905;-62
2023/07/15 01:59:11;;;;;;;;;;;;;;;18.95;71.21;101378.39;107669;1251;109954;-63
2023/07/15 02:01:41;;;;;;;;;;;;;;;18.94;70.88;101381.09;107622;1251;107874;-63
2023/07/15 02:04:09;;;;;;;;;;;;;;;18.92;70.81;101383.39;107530;1253;99212;-62
2023/07/15 02:06:38;;;;;;;;;;;;;;;18.90;70.64;101382.40;107610;1254;99269;-61
2023/07/15 02:09:08;;;;;;;;;;;;;;;18.88;70.62;101383.33;107532;1253;113642;-63
2023/07/15 02:11:39;;;;;;;;;;;;;;;18.84;70.88;101388.39;107632;1251;109551;-61
2023/07/15 02:14:09;;;;;;;;;;;;;;;18.81;71.06;101387.95;107559;1251;107504;-63
2023/07/15 02:16:38;;;;;;;;;;;;;;;18.80;71.08;101389.52;107568;1251;99204;-62
2023/07/15 02:19:07;;;;;;;;;;;;;;;18.78;70.91;101392.45;107648;1251;99182;-61
2023/07/15 02:21:37;;;;;;;;;;;;;;;18.74;71.69;101391.27;107574;1251;113036;-59
2023/07/15 02:24:05;;;;;;;;;;;;;;;18.67;72.17;101389.21;107580;1251;109346;-62
2023/07/15 02:26:34;;;;;;;;;;;;;;;18.61;71.92;101394.25;107588;1255;107388;-61
2023/07/15 02:29:03;;;;;;;;;;;;;;;18.58;72.03;101400.15;107583;1251;99173;-62
2023/07/15 02:31:31;;;;;;;;;;;;;;;18.59;72.18;101397.18;107592;1251;99048;-62
2023/07/15 02:33:59;;;;;;;;;;;;;;;18.59;71.89;101402.77;107604;1251;112592;-62
2023/07/15 02:36:28;;;;;;;;;;;;;;;18.57;72.43;101398.27;107611;1251;108626;-61
2023/07/15 02:38:57;;;;;;;;;;;;;;;18.53;72.65;101401.31;107603;1251;107938;-61
2023/07/15 02:41:26;;;;;;;;;;;;;;;18.50;72.63;101399.99;107623;1253;99154;-61
2023/07/15 02:43:54;;;;;;;;;;;;;;;18.48;72.60;101400.61;107643;1251;99051;-62
2023/07/15 02:46:22;;;;;;;;;;;;;;;18.47;72.74;101403.09;107604;1254;112952;-61
2023/07/15 02:48:51;;;;;;;;;;;;;;;18.45;72.85;101402.69;107570;1254;109964;-64
2023/07/15 02:51:20;;;;;;;;;;;;;;;18.45;73.86;101403.10;107569;1251;108462;-62
2023/07/15 02:53:49;;;;;;;;;;;;;;;18.34;73.77;101401.41;107572;1251;99182;-61
2023/07/15 02:56:17;;;;;;;;;;;;;;;18.28;73.85;101408.60;107643;1251;99057;-63
2023/07/15 02:58:46;;;;;;;;;;;;;;;18.27;74.00;101412.38;107608;1251;113718;-61
2023/07/15 03:01:14;;;;;;;;;;;;;;;18.29;73.99;101412.27;107587;1251;109796;-62
2023/07/15 03:03:43;;;;;;;;;;;;;;;18.32;73.88;101416.53;107588;1251;107632;-62
2023/07/15 03:06:12;;;;;;;;;;;;;;;18.34;73.55;101420.27;107563;1254;99260;-61
2023/07/15 03:08:41;;;;;;;;;;;;;;;18.36;73.71;101417.69;107679;1253;99592;-61
2023/07/15 03:11:09;;;;;;;;;;;;;;;18.40;73.69;101423.77;107556;1251;113937;-61
2023/07/15 03:13:37;;;;;;;;;;;;;;;18.43;73.37;101426.59;107597;1250;110309;-61
2023/07/15 03:16:06;;;;;;;;;;;;;;;18.41;73.90;101426.80;107524;1251;107578;-60
2023/07/15 03:18:35;;;;;;;;;;;;;;;18.41;73.76;101430.99;107558;1251;99153;-61
2023/07/15 03:21:03;;;;;;;;;;;;;;;18.45;73.83;101431.19;107629;1251;99043;-61
2023/07/15 03:23:32;;;;;;;;;;;;;;;18.50;73.74;101439.13;107619;1251;113281;-62
2023/07/15 03:26:00;;;;;;;;;;;;;;;18.55;74.05;101435.39;107563;1251;109858;-62
2023/07/15 03:28:28;;;;;;;;;;;;;;;18.58;73.64;101435.27;107570;1251;108585;-61
2023/07/15 03:30:57;;;;;;;;;;;;;;;18.60;73.66;101434.10;107583;1251;99173;-62
2023/07/15 03:33:26;;;;;;;;;;;;;;;18.64;73.99;101434.19;107649;1251;99193;-60
2023/07/15 03:35:54;;;;;;;;;;;;;;;18.70;74.00;101438.66;107593;1253;113251;-61
2023/07/15 03:38:22;;;;;;;;;;;;;;;18.72;74.30;101437.06;107414;1254;109290;-61
2023/07/15 03:40:54;;;;;;;;;;;;;;;18.76;74.19;101439.52;107532;1254;108363;-61
2023/07/15 03:43:22;;;;;;;;;;;;;;;18.83;74.27;101441.34;107573;1254;99270;-61
2023/07/15 03:45:50;;;;;;;;;;;;;;;18.88;73.99;101442.10;107567;1253;99176;-61
2023/07/15 03:48:18;;;;;;;;;;;;;;;18.92;73.84;101443.27;107565;1254;112853;-61
2023/07/15 03:50:47;;;;;;;;;;;;;;;18.96;73.93;101444.28;107601;1250;109340;-61
2023/07/15 03:53:15;;;;;;;;;;;;;;;19.03;73.84;101448.90;107558;1254;108487;-62
2023/07/15 03:55:43;;;;;;;;;;;;;;;19.11;73.90;101448.54;107545;1253;99159;-61
2023/07/15 03:58:11;;;;;;;;;;;;;;;19.18;73.59;101447.34;107583;1254;99157;-62
2023/07/15 04:00:39;;;;;;;;;;;;;;;19.23;73.59;101448.99;107609;1253;113108;-61
2023/07/15 04:03:07;;;;;;;;;;;;;;;19.29;73.49;101452.89;107596;1253;109871;-60
2023/07/15 04:05:38;;;;;;;;;;;;;;;19.35;73.71;101452.94;107588;1251;108884;-61
2023/07/15 04:08:06;;;;;;;;;;;;;;;19.38;73.61;101454.19;107568;1251;99250;-61
2023/07/15 04:10:34;;;;;;;;;;;;;;;19.44;73.49;101456.10;107575;1251;99076;-61
2023/07/15 04:13:03;;;;;;;;;;;;;;;19.49;73.16;101453.98;107598;1251;113774;-63
2023/07/15 04:15:31;;;;;;;;;;;;;;;19.55;73.15;101452.80;107616;1251;109409;-61
2023/07/15 04:17:59;;;;;;;;;;;;;;;19.59;73.23;101458.20;107597;1251;106977;-61
2023/07/15 04:20:27;;;;;;;;;;;;;;;19.58;73.17;101458.14;107470;1251;99163;-61
2023/07/15 04:22:58;;;;;;;;;;;;;;;19.55;72.98;101468.08;107647;1251;99247;-63
2023/07/15 04:25:27;;;;;;;;;;;;;;;19.55;72.94;101472.81;107630;1251;111985;-61
2023/07/15 04:27:55;;;;;;;;;;;;;;;19.58;73.16;101470.98;107654;1250;110125;-60
2023/07/15 04:30:23;;;;;;;;;;;;;;;19.63;73.04;101469.29;107578;1251;108761;-61
2023/07/15 04:32:51;;;;;;;;;;;;;;;19.71;72.80;101474.77;107654;1251;99172;-61
2023/07/15 04:35:20;;;;;;;;;;;;;;;19.77;73.14;101471.54;107629;1251;99383;-60
2023/07/15 04:37:50;;;;;;;;;;;;;;;19.81;73.22;101472.53;107618;1251;112654;-62
2023/07/15 04:40:19;;;;;;;;;;;;;;;19.85;73.13;101473.48;107592;1251;108883;-60
2023/07/15 04:42:47;;;;;;;;;;;;;;;19.89;73.01;101480.23;107606;1251;108556;-61
2023/07/15 04:45:15;;;;;;;;;;;;;;;19.88;72.70;101480.48;107555;1251;99285;-61
2023/07/15 04:47:43;;;;;;;;;;;;;;;19.92;72.87;101485.26;107585;1251;99283;-60
2023/07/15 04:50:12;;;;;;;;;;;;;;;19.95;72.54;101486.23;107610;1251;112130;-60
2023/07/15 04:52:40;;;;;;;;;;;;;;;19.97;72.40;101487.05;107576;1253;109994;-62
2023/07/15 04:55:09;;;;;;;;;;;;;;;20.02;72.20;101490.02;107667;1251;109329;-59
2023/07/15 04:57:37;;;;;;;;;;;;;;;20.08;72.14;101491.27;107551;1251;99140;-62
2023/07/15 05:00:10;;;;;;;;;;;;;;;20.14;72.16;101489.94;107580;1254;99159;-61
2023/07/15 05:02:39;;;;;;;;;;;;;;;20.22;71.98;101489.08;107585;1253;113122;-61
2023/07/15 05:05:08;;;;;;;;;;;;;;;20.28;71.63;101491.83;107646;1251;110076;-62
2023/07/15 05:07:36;;;;;;;;;;;;;;;20.33;71.59;101491.45;107539;1251;108314;-61
2023/07/15 05:10:23;;;;;;;;;;;;;;;20.40;71.39;101492.20;107518;1254;99246;-61
2023/07/15 05:12:51;;;;;;;;;;;;;;;20.43;70.82;101493.65;107585;1255;99736;-61
2023/07/15 05:15:19;;;;;;;;;;;;;;;20.44;70.59;101496.35;107606;1251;112278;-62
2023/07/15 05:17:50;;;;;;;;;;;;;;;20.42;70.19;101498.03;107569;1251;109270;-60
2023/07/15 05:20:19;;;;;;;;;;;;;;;20.42;69.82;101495.77;107539;1251;107941;-62
2023/07/15 05:22:47;;;;;;;;;;;;;;;20.47;69.88;101496.61;107602;1254;99170;-61
2023/07/15 05:25:17;;;;;;;;;;;;;;;20.56;69.85;101498.56;107600;1254;99144;-61
2023/07/15 05:27:45;;;;;;;;;;;;;;;20.63;69.71;101497.33;107611;1254;113391;-61
2023/07/15 05:30:15;;;;;;;;;;;;;;;20.67;69.25;101496.11;107619;1255;109631;-61
2023/07/15 05:32:43;;;;;;;;;;;;;;;20.73;69.11;101499.41;107541;1253;108031;-61
2023/07/15 05:35:11;;;;;;;;;;;;;;;20.77;68.90;101499.65;107567;1255;99186;-60
2023/07/15 05:37:40;;;;;;;;;;;;;;;20.83;68.65;101497.73;107618;1251;99242;-61
2023/07/15 05:40:09;;;;;;;;;;;;;;;20.85;68.09;101499.77;107584;1251;114128;-61
2023/07/15 05:42:41;;;;;;;;;;;;;;;20.88;68.08;101493.73;107554;1251;108159;-62
2023/07/15 05:45:10;;;;;;;;;;;;;;;20.93;68.00;101493.31;107541;1251;108718;-61
2023/07/15 05:47:39;;;;;;;;;;;;;;;20.99;67.88;101497.38;107539;1254;99042;-62
2023/07/15 05:50:08;;;;;;;;;;;;;;;21.04;67.77;101499.02;107598;1251;99035;-62
2023/07/15 05:52:36;;;;;;;;;;;;;;;21.09;67.61;101502.37;107632;1251;111956;-61
2023/07/15 05:55:05;;;;;;;;;;;;;;;21.12;67.02;101498.33;107618;1250;109033;-62
2023/07/15 05:57:35;;;;;;;;;;;;;;;21.16;66.58;101497.20;107562;1251;106818;-62
2023/07/15 06:00:09;;;;;;;;;;;;;;;21.21;66.65;101499.41;107543;1251;99358;-64
2023/07/15 06:02:40;;;;;;;;;;;;;;;21.25;66.42;101499.09;107631;1255;99232;-64
2023/07/15 06:05:09;;;;;;;;;;;;;;;21.29;66.18;101502.10;107596;1251;112959;-62
2023/07/15 06:07:38;;;;;;;;;;;;;;;21.33;66.07;101504.72;107594;1251;109675;-61
2023/07/15 06:10:06;;;;;;;;;;;;;;;21.36;65.93;101498.99;107567;1251;108241;-62
2023/07/15 06:12:34;;;;;;;;;;;;;;;21.39;65.59;101499.58;107591;1251;99288;-61
2023/07/15 06:15:05;;;;;;;;;;;;;;;21.44;65.66;101500.83;107591;1251;99153;-61
2023/07/15 06:17:33;;;;;;;;;;;;;;;21.49;65.15;101504.59;107629;1254;112184;-62
2023/07/15 06:20:01;;;;;;;;;;;;;;;21.54;64.88;101503.64;107658;1251;108683;-61
2023/07/15 06:22:29;;;;;;;;;;;;;;;21.59;64.63;101505.38;107598;1251;107002;-59
2023/07/15 06:24:57;;;;;;;;;;;;;;;21.65;64.61;101509.02;107570;1251;99240;-63
2023/07/15 06:27:25;;;;;;;;;;;;;;;21.72;64.65;101512.16;107646;1251;99169;-62
2023/07/15 06:29:54;;;;;;;;;;;;;;;21.77;64.52;101507.95;107622;1251;113268;-60
2023/07/15 06:32:22;;;;;;;;;;;;;;;21.82;64.35;101504.14;107627;1252;110991;-61
2023/07/15 06:34:50;;;;;;;;;;;;;;;21.88;64.03;101505.04;107570;1251;108218;-62
2023/07/15 06:37:19;;;;;;;;;;;;;;;21.94;63.81;101509.10;107575;1251;99172;-62
2023/07/15 06:39:48;;;;;;;;;;;;;;;22.00;63.54;101509.30;107624;1251;99106;-61
2023/07/15 06:42:18;;;;;;;;;;;;;;;22.02;62.72;101504.23;107620;1251;113144;-61
2023/07/15 06:44:48;;;;;;;;;;;;;;;22.10;63.03;101508.02;107587;1251;107933;-60
2023/07/15 06:47:16;;;;;;;;;;;;;;;22.17;63.02;101501.63;107605;1251;108391;-61
2023/07/15 06:49:45;;;;;;;;;;;;;;;22.22;62.71;101502.74;107650;1251;99163;-62
2023/07/15 06:52:13;;;;;;;;;;;;;;;22.27;61.79;101499.20;107577;1252;99073;-62
2023/07/15 06:54:41;;;;;;;;;;;;;;;22.32;61.51;101497.85;107596;1254;113652;-61
2023/07/15 06:57:09;;;;;;;;;;;;;;;22.38;61.42;101495.16;107596;1254;109726;-59
2023/07/15 06:59:37;;;;;;;;;;;;;;;22.43;61.28;101497.06;107607;1254;108750;-62
2023/07/15 07:02:05;;;;;;;;;;;;;;;22.50;61.14;101491.97;107566;1254;99181;-61
2023/07/15 07:04:34;;;;;;;;;;;;;;;22.58;60.91;101492.59;107627;1254;99015;-61
2023/07/15 07:07:03;;;;;;;;;;;;;;;22.67;61.16;101492.40;107562;1254;111697;-60
2023/07/15 07:09:31;;;;;;;;;;;;;;;22.75;60.65;101497.19;107596;1256;108874;-63
2023/07/15 07:11:59;;;;;;;;;;;;;;;22.85;58.87;101496.84;107529;1254;108544;-62
2023/07/15 07:14:27;;;;;;;;;;;;;;;22.94;58.84;101494.02;107566;1253;99061;-63
2023/07/15 07:16:58;;;;;;;;;;;;;;;23.04;58.29;101499.23;107623;1254;99285;-62
2023/07/15 07:19:26;;;;;;;;;;;;;;;23.10;57.81;101501.89;107650;1256;113104;-62
2023/07/15 07:21:55;;;;;;;;;;;;;;;23.18;57.32;101503.90;107618;1254;109844;-61
2023/07/15 07:24:23;;;;;;;;;;;;;;;23.24;56.47;101501.96;107597;1253;107171;-63
2023/07/15 07:26:51;;;;;;;;;;;;;;;23.32;56.27;101500.47;107573;1254;99154;-62
2023/07/15 07:29:23;;;;;;;;;;;;;;;23.37;54.77;101500.45;107588;1254;99160;-64
2023/07/15 07:31:53;;;;;;;;;;;;;;;23.42;52.87;101496.14;107619;1254;114145;-61
2023/07/15 07:34:21;;;;;;;;;;;;;;;23.50;53.23;101494.00;107553;1254;108966;-62
2023/07/15 07:36:52;;;;;;;;;;;;;;;23.58;52.35;101494.64;107595;1254;107609;-62
2023/07/15 07:39:27;;;;;;;;;;;;;;;23.65;50.95;101494.02;107620;1254;99154;-62
2023/07/15 07:41:58;;;;;;;;;;;;;;;23.76;50.15;101489.20;107575;1254;99019;-63
2023/07/15 07:44:26;;;;;;;;;;;;;;;23.89;51.48;101490.85;107640;1253;112906;-62
2023/07/15 07:46:55;;;;;;;;;;;;;;;23.98;50.71;101490.51;107679;1255;109519;-62
2023/07/15 07:49:23;;;;;;;;;;;;;;;24.06;50.09;101485.12;107597;1256;108521;-66
2023/07/15 07:51:52;;;;;;;;;;;;;;;24.13;50.11;101484.76;107639;1251;99379;-62
2023/07/15 07:54:20;;;;;;;;;;;;;;;24.22;50.27;101485.87;107643;1256;99300;-61
2023/07/15 07:56:48;;;;;;;;;;;;;;;24.36;50.34;101485.62;107628;1251;113125;-65
2023/07/15 07:59:16;;;;;;;;;;;;;;;24.50;50.37;101485.31;107598;1250;108819;-61
2023/07/15 08:01:45;;;;;;;;;;;;;;;24.59;50.85;101480.02;107625;1251;108253;-62
2023/07/15 08:04:12;;;;;;;;;;;;;;;24.69;49.77;101483.84;106953;1251;855712;-62
2023/07/15 08:06:41;;;;;;;;;;;;;;;24.76;50.20;101479.40;107647;1251;99169;-62
2023/07/15 08:09:09;;;;;;;;;;;;;;;24.83;49.58;101478.45;107613;1251;112660;-62
2023/07/15 08:11:37;;;;;;;;;;;;;;;24.89;49.42;101474.09;107634;1251;109434;-63
2023/07/15 08:14:05;;;;;;;;;;;;;;;24.99;48.63;101474.16;107620;1251;108342;-63
2023/07/15 08:16:34;;;;;;;;;;;;;;;25.13;47.03;101470.14;107567;1254;99211;-62
2023/07/15 08:19:04;;;;;;;;;;;;;;;25.24;47.44;101467.82;107534;1256;99247;-62
2023/07/15 08:21:32;;;;;;;;;;;;;;;25.34;47.36;101465.88;107615;1254;113455;-62
2023/07/15 08:24:05;;;;;;;;;;;;;;;25.41;47.80;101466.13;107604;1254;108935;-64
2023/07/15 08:26:33;;;;;;;;;;;;;;;25.54;47.00;101462.67;107604;1251;108192;-63
2023/07/15 08:29:02;;;;;;;;;;;;;;;25.67;47.40;101461.04;107596;1254;99284;-61
2023/07/15 08:31:30;;;;;;;;;;;;;;;25.82;46.39;101455.95;107608;1255;99067;-61
2023/07/15 08:33:59;;;;;;;;;;;;;;;25.98;45.38;101456.44;107607;1254;112108;-62
2023/07/15 08:36:27;;;;;;;;;;;;;;;26.09;45.67;101459.86;107597;1254;110181;-63
2023/07/15 08:38:56;;;;;;;;;;;;;;;26.18;45.99;101455.68;107436;1255;108395;-61
2023/07/15 08:41:24;;;;;;;;;;;;;;;26.31;45.69;101456.60;107617;1254;99041;-65
2023/07/15 08:43:53;;;;;;;;;;;;;;;26.40;46.11;101457.33;107652;1254;99134;-61
2023/07/15 08:46:28;;;;;;;;;;;;;;;26.50;45.57;101455.38;107610;1254;112939;-62
2023/07/15 08:48:58;;;;;;;;;;;;;;;26.60;44.70;101454.21;107545;1254;109246;-61
2023/07/15 08:51:36;;;;;;;;;;;;;;;26.71;44.83;101455.27;107599;1254;108487;-63
2023/07/15 08:54:08;;;;;;;;;;;;;;;26.83;44.38;101449.09;107610;1254;99185;-61
2023/07/15 08:56:37;;;;;;;;;;;;;;;26.92;44.36;101449.50;107673;1251;99157;-62
2023/07/15 08:59:06;;;;;;;;;;;;;;;26.97;41.76;101455.02;107592;1251;113023;-63
2023/07/15 09:01:35;;;;;;;;;;;;;;;27.04;42.86;101455.31;107592;1251;109727;-61
2023/07/15 09:04:04;;;;;;;;;;;;;;;27.18;42.70;101453.67;107576;1251;108193;-62
2023/07/15 09:06:33;;;;;;;;;;;;;;;27.32;42.34;101453.41;107567;1254;99312;-62
2023/07/15 09:09:02;;;;;;;;;;;;;;;27.48;41.60;101453.42;107638;1255;99178;-63
2023/07/15 09:11:42;;;;;;;;;;;;;;;27.66;41.37;101447.50;107651;1251;112929;-64
2023/07/15 09:14:14;;;;;;;;;;;;;;;27.84;41.19;101455.33;107633;1251;108997;-63
2023/07/15 09:16:45;;;;;;;;;;;;;;;28.05;40.88;101447.32;107676;1251;108556;-63
2023/07/15 09:19:18;;;;;;;;;;;;;;;28.28;40.18;101444.54;107610;1251;99031;-62
2023/07/15 09:21:51;;;;;;;;;;;;;;;28.48;40.05;101446.50;107606;1251;99202;-64
2023/07/15 09:24:20;;;;;;;;;;;;;;;28.72;40.48;101447.08;107659;1251;112044;-63
2023/07/15 09:26:51;;;;;;;;;;;;;;;28.99;40.46;101448.52;107591;1254;110025;-62
2023/07/15 09:29:20;;;;;;;;;;;;;;;29.28;38.81;101444.05;107548;1254;108666;-63
2023/07/15 09:31:48;;;;;;;;;;;;;;;29.54;37.49;101445.39;107585;1254;99163;-61
2023/07/15 09:34:21;;;;;;;;;;;;;;;29.75;36.68;101442.46;107625;1251;99066;-61
2023/07/15 09:36:49;;;;;;;;;;;;;;;29.96;36.30;101445.90;107618;1254;113417;-61
2023/07/15 09:39:19;;;;;;;;;;;;;;;30.20;34.70;101442.27;107643;1254;109783;-62
2023/07/15 09:42:04;;;;;;;;;;;;;;;30.40;34.69;101439.81;107594;1254;107085;-62
2023/07/15 09:44:38;;;;;;;;;;;;;;;30.68;34.15;101440.59;107596;1254;99034;-64
2023/07/15 09:47:07;;;;;;;;;;;;;;;31.00;33.79;101441.59;107560;1254;99102;-62
2023/07/15 09:49:36;;;;;;;;;;;;;;;31.24;33.73;101444.42;107548;1251;113165;-62
2023/07/15 09:52:05;;;;;;;;;;;;;;;31.42;32.38;101443.29;107523;1251;109018;-63
2023/07/15 09:54:34;;;;;;;;;;;;;;;31.64;32.94;101441.86;107514;1251;108045;-63
2023/07/15 09:57:04;;;;;;;;;;;;;;;31.93;32.71;101439.27;107518;1251;99172;-61
2023/07/15 09:59:43;;;;;;;;;;;;;;;32.24;30.97;101437.66;107572;1255;99077;-63
2023/07/15 10:02:18;;;;;;;;;;;;;;;32.55;31.25;101438.10;107553;1251;113201;-63
2023/07/15 10:04:48;;;;;;;;;;;;;;;32.96;31.38;101438.15;107558;1251;108741;-60
2023/07/15 10:07:16;;;;;;;;;;;;;;;33.27;30.94;101435.10;107496;1251;108420;-63
2023/07/15 10:09:44;;;;;;;;;;;;;;;33.56;30.59;101429.89;107512;1254;99234;-61
2023/07/15 10:12:13;;;;;;;;;;;;;;;33.87;29.85;101428.11;107517;1251;99179;-65
2023/07/15 10:14:41;;;;;;;;;;;;;;;34.14;29.09;101427.00;107691;1251;112995;-63
2023/07/15 10:17:18;;;;;;;;;;;;;;;34.36;28.40;101424.38;107526;1251;110893;-64
2023/07/15 10:19:51;;;;;;;;;;;;;;;34.73;27.44;101421.23;107506;1251;107513;-61
2023/07/15 10:22:22;;;;;;;;;;;;;;;35.04;26.65;101413.13;107554;1251;99169;-60
2023/07/15 10:24:57;;;;;;;;;;;;;;;35.42;26.05;101410.26;107583;1251;99172;-63
2023/07/15 10:27:25;;;;;;;;;;;;;;;35.84;25.72;101410.95;107523;1256;112655;-61
2023/07/15 10:30:12;;;;;;;;;;;;;;;36.28;25.35;101405.19;107562;1255;109396;-61
2023/07/15 10:33:08;;;;;;;;;;;;;;;36.78;24.35;101402.64;107539;1253;109678;-62
2023/07/15 10:35:39;;;;;;;;;;;;;;;37.00;23.82;101404.80;107532;1251;99164;-62
2023/07/15 10:38:20;;;;;;;;;;;;;;;37.37;23.38;101400.10;107560;1251;99087;-63
2023/07/15 10:41:00;;;;;;;;;;;;;;;37.73;23.42;101397.58;107592;1254;113563;-63
2023/07/15 10:43:34;;;;;;;;;;;;;;;38.16;23.34;101395.85;107622;1251;107908;-61
2023/07/15 10:46:16;;;;;;;;;;;;;;;38.70;23.93;101391.35;107540;1251;108561;-64
2023/07/15 10:48:47;;;;;;;;;;;;;;;39.13;23.00;101386.28;107535;1251;99172;-63
2023/07/15 10:51:16;;;;;;;;;;;;;;;39.38;22.79;101386.70;107552;1251;100404;-62
2023/07/15 10:53:44;;;;;;;;;;;;;;;39.75;22.56;101381.64;107668;1254;113661;-61
2023/07/15 10:56:12;;;;;;;;;;;;;;;40.10;22.71;101380.90;107609;1251;109620;-61
2023/07/15 10:58:41;;;;;;;;;;;;;;;40.42;21.80;101377.40;107620;1254;107961;-61
2023/07/15 11:01:11;;;;;;;;;;;;;;;40.39;21.12;101374.21;107645;1254;99243;-62
2023/07/15 11:03:42;;;;;;;;;;;;;;;40.58;21.10;101375.30;107651;1255;99185;-62
2023/07/15 11:06:12;;;;;;;;;;;;;;;40.66;20.59;101368.80;107589;1254;112608;-63
2023/07/15 11:08:44;;;;;;;;;;;;;;;40.74;21.17;101369.29;107641;1256;109483;-61
2023/07/15 11:11:13;;;;;;;;;;;;;;;41.04;21.31;101365.96;107622;1256;107265;-62
2023/07/15 11:13:42;;;;;;;;;;;;;;;41.34;19.69;101365.35;107575;1254;99067;-61
2023/07/15 11:16:10;;;;;;;;;;;;;;;41.19;19.39;101364.10;107613;1256;99208;-62
2023/07/15 11:18:39;;;;;;;;;;;;;;;41.02;19.74;101359.65;107643;1254;113123;-62
2023/07/15 11:21:07;;;;;;;;;;;;;;;40.92;19.32;101353.96;107561;1257;109373;-63
2023/07/15 11:23:35;;;;;;;;;;;;;;;40.72;19.05;101353.63;107625;1254;108426;-63
2023/07/15 11:26:08;;;;;;;;;;;;;;;40.77;20.16;101350.02;107605;1254;99272;-62
2023/07/15 11:28:47;;;;;;;;;;;;;;;41.14;20.58;101349.84;107647;1255;99067;-61
2023/07/15 11:31:15;;;;;;;;;;;;;;;41.02;18.97;101352.17;107650;1255;111623;-61
2023/07/15 11:33:43;;;;;;;;;;;;;;;41.01;19.80;101349.45;107597;1251;109211;-63
2023/07/15 11:36:12;;;;;;;;;;;;;;;41.37;19.52;101343.19;107554;1255;108167;-62
2023/07/15 11:38:41;;;;;;;;;;;;;;;41.60;20.10;101345.38;107527;1256;99040;-61
2023/07/15 11:41:09;;;;;;;;;;;;;;;41.88;18.83;101347.37;107558;1254;99217;-63
2023/07/15 11:43:38;;;;;;;;;;;;;;;41.89;18.54;101340.05;107618;1256;114046;-62
2023/07/15 11:46:06;;;;;;;;;;;;;;;42.30;18.92;101337.73;107573;1254;109415;-61
2023/07/15 11:48:34;;;;;;;;;;;;;;;42.68;18.83;101339.50;107575;1251;108226;-62
2023/07/15 11:51:07;;;;;;;;;;;;;;;43.06;17.94;101339.79;107567;1252;99295;-62
2023/07/15 11:53:36;;;;;;;;;;;;;;;43.36;17.52;101334.88;107559;1254;99058;-63
2023/07/15 11:56:08;;;;;;;;;;;;;;;43.68;17.89;101331.43;107523;1256;113555;-63
2023/07/15 11:58:49;;;;;;;;;;;;;;;43.89;16.81;101329.80;107542;1254;109162;-66
2023/07/15 12:01:22;;;;;;;;;;;;;;;44.09;16.82;101325.23;107611;1251;108562;-61
2023/07/15 12:03:51;;;;;;;;;;;;;;;44.23;16.51;101326.66;107562;1251;99150;-62
2023/07/15 12:06:20;;;;;;;;;;;;;;;44.46;16.59;101322.17;107634;1256;99199;-63
2023/07/15 12:08:58;;;;;;;;;;;;;;;44.70;16.37;101320.67;107641;1254;113473;-61
2023/07/15 12:11:26;;;;;;;;;;;;;;;44.91;15.09;101314.02;107590;1251;110400;-61
2023/07/15 12:13:54;;;;;;;;;;;;;;;45.01;14.35;101311.89;107625;1254;108263;-62
2023/07/15 12:16:23;;;;;;;;;;;;;;;44.86;14.48;101310.71;107599;1256;99297;-62
2023/07/15 12:18:55;;;;;;;;;;;;;;;44.65;15.28;101309.64;107625;1255;99184;-61
2023/07/15 12:21:23;;;;;;;;;;;;;;;44.91;15.20;101305.91;107657;1257;112915;-62
2023/07/15 12:23:52;;;;;;;;;;;;;;;45.09;14.90;101300.68;107581;1251;109342;-62
2023/07/15 12:26:20;;;;;;;;;;;;;;;45.25;15.02;101297.34;107475;1254;107785;-63
2023/07/15 12:28:49;;;;;;;;;;;;;;;45.12;15.69;101298.81;107569;1256;99204;-61
2023/07/15 12:31:17;;;;;;;;;;;;;;;45.32;14.81;101298.52;107526;1251;99164;-61
2023/07/15 12:33:48;;;;;;;;;;;;;;;45.55;14.38;101294.30;107570;1251;113642;-62